Time;durP1;ratioP1;P1;durP2;ratioP2;P2;SDS_P1;SDS_P2;PMS_P1;PMS_P2;Temp;Humidity;BMP_temperature;BMP_pressure;BME280_temperature;BME280_humidity;BME280_pressure;Samples;Min_cycle;Max_cycle;Signal;HPM_P1;HPM_P2
2022/03/10 00:02:06;;;;;;;12.65;7.82;;;4.40;99.90;;;;;;11881445;29;20110;-82
2022/03/10 00:08:08;;;;;;;12.73;7.60;;;4.30;99.90;;;;;;11881488;29;20061;-82
2022/03/10 00:14:10;;;;;;;14.35;7.43;;;4.20;99.90;;;;;;11878695;29;20050;-81
2022/03/10 00:20:12;;;;;;;11.55;7.20;;;4.20;99.90;;;;;;11881081;29;20051;-82
2022/03/10 00:26:17;;;;;;;;;;;4.60;99.90;;;;;;11887231;29;20085;-82
2022/03/10 00:32:19;;;;;;;12.07;6.68;;;5.00;99.90;;;;;;11887482;29;19929;-82
2022/03/10 00:38:21;;;;;;;14.15;6.93;;;5.10;99.90;;;;;;11878060;29;20659;-82
2022/03/10 00:44:23;;;;;;;11.27;6.65;;;4.90;99.90;;;;;;11892622;29;20066;-81
2022/03/10 00:50:24;;;;;;;12.90;7.65;;;4.60;99.90;;;;;;11877371;29;20058;-82
2022/03/10 00:56:26;;;;;;;15.50;8.30;;;4.50;99.90;;;;;;11872967;29;20059;-82
2022/03/10 01:02:31;;;;;;;13.88;7.95;;;4.20;99.90;;;;;;11874171;29;20059;-81
2022/03/10 01:08:32;;;;;;;;;;;4.10;99.90;;;;;;11882522;29;20062;-82
2022/03/10 01:14:34;;;;;;;12.95;6.90;;;4.00;99.90;;;;;;11877488;29;20354;-82
2022/03/10 01:20:36;;;;;;;10.30;6.40;;;3.90;99.90;;;;;;11878387;29;20055;-81
2022/03/10 01:26:38;;;;;;;14.32;7.90;;;3.90;99.90;;;;;;11877216;29;20590;-82
2022/03/10 01:32:40;;;;;;;16.42;7.57;;;3.90;99.90;;;;;;11876198;29;20043;-82
2022/03/10 01:38:42;;;;;;;12.27;7.07;;;3.90;99.90;;;;;;11880117;29;20940;-82
2022/03/10 01:44:44;;;;;;;13.50;6.93;;;4.20;99.90;;;;;;11876122;29;20100;-81
2022/03/10 01:50:46;;;;;;;14.00;6.63;;;4.40;99.90;;;;;;11882061;29;20058;-82
2022/03/10 01:56:49;;;;;;;13.18;7.35;;;4.60;99.90;;;;;;11874117;29;20055;-82
2022/03/10 02:02:50;;;;;;;11.00;6.55;;;4.70;99.90;;;;;;11872051;29;20577;-81
2022/03/10 02:21:57;;;;;;;13.82;6.93;;;4.50;99.90;;;;;;11853443;29;20047;-82
2022/03/10 02:27:59;;;;;;;12.13;6.65;;;4.20;99.90;;;;;;11875082;29;20141;-81
2022/03/10 02:34:00;;;;;;;12.55;6.53;;;4.10;99.90;;;;;;11874262;29;20043;-81
2022/03/10 02:40:03;;;;;;;13.23;6.45;;;3.90;99.90;;;;;;11870526;29;20536;-82
2022/03/10 02:46:05;;;;;;;10.10;6.50;;;3.70;99.90;;;;;;11873392;29;20371;-81
2022/03/10 02:52:08;;;;;;;11.90;5.82;;;3.80;99.90;;;;;;11875528;29;20485;-82
2022/03/10 02:58:16;;;;;;;12.45;6.55;;;3.80;99.90;;;;;;11871972;29;20066;-82
2022/03/10 03:04:18;;;;;;;12.80;6.90;;;3.60;99.90;;;;;;11880463;29;21206;-81
2022/03/10 03:10:20;;;;;;;10.65;6.68;;;3.50;99.90;;;;;;11874869;29;20139;-82
2022/03/10 03:16:21;;;;;;;14.40;7.70;;;3.40;99.90;;;;;;11870929;29;20059;-81
2022/03/10 03:22:23;;;;;;;14.48;8.02;;;3.30;99.90;;;;;;11872152;29;20717;-81
2022/03/10 03:28:25;;;;;;;13.55;8.30;;;3.00;99.90;;;;;;11869648;29;20512;-81
2022/03/10 03:34:27;;;;;;;12.30;7.53;;;2.90;99.90;;;;;;11875732;29;20059;-81
2022/03/10 03:40:29;;;;;;;13.25;8.23;;;2.90;99.90;;;;;;11878003;29;20458;-81
2022/03/10 03:46:31;;;;;;;14.40;7.97;;;2.60;99.90;;;;;;11875413;29;20581;-82
2022/03/10 03:52:38;;;;;;;13.52;8.40;;;2.50;99.90;;;;;;11872210;29;20138;-81
2022/03/10 03:58:41;;;;;;;15.83;8.40;;;2.50;99.90;;;;;;11868114;29;20080;-81
2022/03/10 04:04:43;;;;;;;14.15;8.23;;;2.40;99.90;;;;;;11879878;29;20067;-81
2022/03/10 04:10:48;;;;;;;15.32;9.18;;;2.40;99.90;;;;;;11868955;29;20063;-81
2022/03/10 04:16:50;;;;;;;13.57;7.88;;;2.20;99.90;;;;;;11879342;29;20055;-81
2022/03/10 04:22:52;;;;;;;14.85;7.97;;;2.20;99.90;;;;;;11879985;29;20588;-81
2022/03/10 04:28:54;;;;;;;15.25;8.43;;;2.00;99.90;;;;;;11879731;29;20055;-81
2022/03/10 04:34:56;;;;;;;13.55;8.60;;;1.70;99.90;;;;;;11878026;29;20416;-81
2022/03/10 04:40:58;;;;;;;12.32;8.00;;;1.70;99.90;;;;;;11874009;29;20124;-81
2022/03/10 04:47:01;;;;;;;15.68;8.43;;;1.40;99.90;;;;;;11895090;29;20058;-81
2022/03/10 04:53:03;;;;;;;17.02;9.05;;;1.40;99.90;;;;;;11877581;29;20054;-81
2022/03/10 04:59:04;;;;;;;12.48;7.88;;;1.30;99.90;;;;;;11876062;29;20086;-81
2022/03/10 05:05:12;;;;;;;16.13;8.85;;;1.20;99.90;;;;;;11878280;29;20148;-81
2022/03/10 05:11:14;;;;;;;14.00;8.45;;;1.30;99.90;;;;;;11873661;29;20058;-81
2022/03/10 05:17:16;;;;;;;13.98;8.52;;;1.30;99.90;;;;;;11881516;29;20254;-81
2022/03/10 05:23:18;;;;;;;13.10;8.50;;;1.40;99.90;;;;;;11877724;29;20059;-81
2022/03/10 05:29:20;;;;;;;14.57;8.20;;;1.30;99.90;;;;;;11878208;29;20116;-81
2022/03/10 05:35:29;;;;;;;14.32;8.02;;;1.20;99.90;;;;;;11877924;29;20161;-81
2022/03/10 05:41:32;;;;;;;15.20;8.75;;;1.30;99.90;;;;;;11879180;29;20062;-81
2022/03/10 05:47:35;;;;;;;17.13;8.43;;;1.20;99.90;;;;;;11894889;29;20063;-82
2022/03/10 05:53:37;;;;;;;17.45;8.82;;;1.10;99.90;;;;;;11875713;29;20116;-81
2022/03/10 05:59:39;;;;;;;15.30;8.30;;;1.20;99.90;;;;;;11863355;29;20051;-81
2022/03/10 06:05:41;;;;;;;14.88;9.18;;;1.10;99.90;;;;;;11872310;29;20111;-81
2022/03/10 06:11:43;;;;;;;17.02;8.25;;;1.20;99.90;;;;;;11892881;29;20106;-81
2022/03/10 06:17:44;;;;;;;15.88;8.82;;;1.30;99.90;;;;;;11879309;29;20051;-81
2022/03/10 06:23:46;;;;;;;16.70;9.25;;;1.00;99.90;;;;;;11875140;29;20445;-81
2022/03/10 06:29:49;;;;;;;14.25;8.73;;;1.10;99.90;;;;;;11874227;29;20089;-81
2022/03/10 06:35:51;;;;;;;14.60;8.55;;;1.30;99.90;;;;;;11882144;29;20059;-81
2022/03/10 06:41:53;;;;;;;15.07;8.98;;;1.40;99.90;;;;;;11872007;29;20063;-83
2022/03/10 06:47:55;;;;;;;16.48;8.02;;;1.50;99.90;;;;;;11876259;29;20059;-84
2022/03/10 06:53:57;;;;;;;15.48;9.10;;;1.60;99.90;;;;;;11876679;29;20052;-81
2022/03/10 07:00:00;;;;;;;16.23;9.43;;;1.80;99.90;;;;;;11872617;29;20182;-81
2022/03/10 07:06:02;;;;;;;16.85;8.73;;;2.00;99.90;;;;;;11871140;29;20062;-82
2022/03/10 07:12:05;;;;;;;15.60;8.50;;;2.10;99.90;;;;;;11872807;29;20516;-81
2022/03/10 07:18:06;;;;;;;18.55;8.52;;;2.30;99.90;;;;;;11873507;29;20059;-82
2022/03/10 07:24:09;;;;;;;15.65;7.97;;;2.50;99.90;;;;;;11874855;29;20108;-81
2022/03/10 07:30:11;;;;;;;15.45;8.68;;;2.70;99.90;;;;;;11873211;29;20449;-82
2022/03/10 07:36:13;;;;;;;15.85;8.57;;;2.80;99.90;;;;;;11872898;29;20052;-82
2022/03/10 07:42:15;;;;;;;13.20;6.75;;;3.10;99.90;;;;;;11885763;29;20455;-82
2022/03/10 07:48:18;;;;;;;8.10;5.22;;;3.70;99.90;;;;;;11876830;29;20067;-82
2022/03/10 07:54:20;;;;;;;10.30;5.75;;;5.70;99.90;;;;;;11881258;29;20784;-82
2022/03/10 08:00:22;;;;;;;13.48;6.88;;;6.70;99.90;;;;;;11881018;29;20541;-82
2022/03/10 08:06:26;;;;;;;14.63;7.57;;;6.90;99.90;;;;;;11893081;29;21048;-82
2022/03/10 08:12:31;;;;;;;13.10;7.10;;;6.90;99.90;;;;;;11879168;29;20104;-82
2022/03/10 08:18:33;;;;;;;8.27;5.53;;;7.00;99.90;;;;;;11882643;29;20063;-82
2022/03/10 08:24:41;;;;;;;9.07;5.72;;;7.60;99.90;;;;;;11876591;29;20521;-82
2022/03/10 08:30:43;;;;;;;10.20;5.32;;;8.10;99.90;;;;;;11877139;29;20476;-83
2022/03/10 08:36:45;;;;;;;10.85;5.40;;;8.30;99.90;;;;;;11882619;29;20079;-83
2022/03/10 08:42:50;;;;;;;10.63;5.60;;;8.70;99.90;;;;;;11881597;29;20047;-83
2022/03/10 08:48:52;;;;;;;9.07;5.50;;;9.00;99.90;;;;;;11881598;29;20059;-83
2022/03/10 08:54:54;;;;;;;8.80;5.55;;;9.30;99.90;;;;;;11882774;29;20047;-83
2022/03/10 09:00:56;;;;;;;9.23;5.30;;;9.40;99.90;;;;;;11880599;29;20089;-83
2022/03/10 09:07:18;;;;;;;9.82;5.15;;;9.70;99.90;;;;;;11880233;29;20129;-84
2022/03/10 09:13:20;;;;;;;13.65;6.07;;;9.80;99.90;;;;;;11879948;29;20064;-84
2022/03/10 09:19:23;;;;;;;9.15;5.85;;;9.90;99.90;;;;;;11880506;29;20107;-83
2022/03/10 09:25:24;;;;;;;9.35;5.60;;;10.00;99.90;;;;;;11886755;29;20567;-83
2022/03/10 09:31:27;;;;;;;11.88;5.88;;;10.30;99.90;;;;;;11878964;29;20071;-84
2022/03/10 09:37:29;;;;;;;9.43;5.70;;;10.60;99.90;;;;;;11884764;29;20055;-84
2022/03/10 09:43:32;;;;;;;10.63;5.80;;;10.80;99.90;;;;;;11881989;29;20055;-84
2022/03/10 09:49:34;;;;;;;11.07;5.90;;;10.80;99.90;;;;;;11875553;29;20054;-83
2022/03/10 09:55:36;;;;;;;9.32;5.75;;;11.10;99.90;;;;;;11870821;29;20116;-84
2022/03/10 10:01:37;;;;;;;11.40;6.07;;;11.30;99.90;;;;;;11871881;29;20130;-84
2022/03/10 10:07:39;;;;;;;11.35;6.35;;;11.40;99.90;;;;;;11878032;29;20055;-83
2022/03/10 10:13:43;;;;;;;8.73;5.90;;;11.80;99.90;;;;;;11876140;29;20059;-84
2022/03/10 10:19:45;;;;;;;11.50;6.00;;;12.00;99.90;;;;;;11876781;29;20062;-84
2022/03/10 10:26:12;;;;;;;10.15;6.22;;;12.10;99.90;;;;;;11872173;29;20059;-84
2022/03/10 10:32:35;;;;;;;12.68;6.13;;;12.10;99.90;;;;;;11883783;29;20059;-85
2022/03/10 10:38:37;;;;;;;10.18;6.57;;;12.10;99.90;;;;;;11881511;29;20635;-83
2022/03/10 10:44:41;;;;;;;10.98;6.63;;;12.10;99.90;;;;;;11876605;29;20051;-84
2022/03/10 10:50:44;;;;;;;11.50;6.28;;;12.20;99.90;;;;;;11875706;29;20150;-85
2022/03/10 10:56:48;;;;;;;10.88;7.03;;;12.30;99.90;;;;;;11882481;29;20495;-85
2022/03/10 11:02:50;;;;;;;10.38;6.82;;;12.40;99.90;;;;;;11874713;29;20043;-84
2022/03/10 11:08:54;;;;;;;11.18;6.18;;;12.60;99.90;;;;;;11875765;29;20059;-84
2022/03/10 11:14:56;;;;;;;8.90;6.10;;;12.70;99.90;;;;;;11878960;29;20393;-84
2022/03/10 11:21:27;;;;;;;10.93;6.55;;;12.70;99.90;;;;;;11870135;29;20305;-84
2022/03/10 11:27:37;;;;;;;10.65;6.55;;;12.60;99.90;;;;;;11887341;29;20070;-84
2022/03/10 11:33:39;;;;;;;12.82;7.00;;;12.80;99.90;;;;;;11879995;29;20051;-84
2022/03/10 11:39:54;;;;;;;12.52;6.78;;;13.00;99.90;;;;;;11884323;29;20508;-85
2022/03/10 11:46:15;;;;;;;12.80;6.82;;;13.20;99.90;;;;;;11896255;29;20128;-84
2022/03/10 11:52:24;;;;;;;11.05;7.10;;;13.40;99.90;;;;;;11881289;29;20051;-84
2022/03/10 11:58:36;;;;;;;13.07;7.05;;;13.70;99.90;;;;;;11880519;29;20066;-85
2022/03/10 12:04:40;;;;;;;8.88;6.63;;;13.60;99.90;;;;;;11895161;29;20535;-84
2022/03/10 12:10:42;;;;;;;9.95;6.80;;;13.50;99.90;;;;;;11893613;29;20058;-85
2022/03/10 12:16:44;;;;;;;9.90;6.45;;;13.70;99.90;;;;;;11888385;29;20143;-84
2022/03/10 12:23:09;;;;;;;11.68;6.90;;;13.70;99.90;;;;;;11875559;29;20138;-84
2022/03/10 12:29:12;;;;;;;11.30;7.10;;;13.90;99.90;;;;;;11878142;29;20062;-85
2022/03/10 12:35:14;;;;;;;10.07;6.90;;;13.90;99.90;;;;;;11875542;29;20050;-85
2022/03/10 12:41:17;;;;;;;10.25;7.10;;;13.90;99.90;;;;;;11865642;29;20142;-84
2022/03/10 12:47:21;;;;;;;11.90;7.10;;;14.10;99.90;;;;;;11882464;29;20085;-85
2022/03/10 12:53:22;;;;;;;10.20;7.20;;;14.60;99.90;;;;;;11870304;29;20597;-85
2022/03/10 12:59:33;;;;;;;12.43;7.05;;;14.60;99.90;;;;;;11881352;29;20610;-85
2022/03/10 13:05:35;;;;;;;12.27;6.80;;;14.60;99.90;;;;;;11884521;29;20146;-85
2022/03/10 13:11:39;;;;;;;10.45;5.72;;;14.50;99.90;;;;;;11889966;29;20118;-83
2022/03/10 13:17:48;;;;;;;9.13;6.43;;;14.40;99.90;;;;;;11876427;29;20054;-84
2022/03/10 13:23:56;;;;;;;9.73;5.72;;;14.50;99.90;;;;;;11875072;29;20051;-84
2022/03/10 13:29:58;;;;;;;10.07;5.78;;;14.60;99.90;;;;;;11876899;29;20423;-84
2022/03/10 13:36:00;;;;;;;9.93;6.72;;;14.60;99.90;;;;;;11876197;29;20062;-84
2022/03/10 13:42:04;;;;;;;11.57;7.28;;;14.40;99.90;;;;;;11876999;29;20183;-84
2022/03/10 13:48:06;;;;;;;;;;;14.20;99.90;;;;;;11875670;29;20440;-85
2022/03/10 13:54:08;;;;;;;11.35;7.53;;;14.20;99.90;;;;;;11880958;29;19933;-84
2022/03/10 14:00:11;;;;;;;11.32;7.50;;;14.10;99.90;;;;;;11879798;29;20177;-85
2022/03/10 14:06:16;;;;;;;12.43;7.55;;;14.00;99.90;;;;;;11883856;29;20145;-84
2022/03/10 14:12:22;;;;;;;13.50;7.60;;;14.00;99.90;;;;;;11874927;29;20074;-85
2022/03/10 14:18:25;;;;;;;20.30;7.57;;;14.20;99.90;;;;;;11876411;29;20055;-84
2022/03/10 14:24:30;;;;;;;11.73;7.22;;;14.30;99.90;;;;;;11879784;29;20295;-85
2022/03/10 14:30:36;;;;;;;16.45;6.88;;;14.20;99.90;;;;;;11875809;29;20130;-85
2022/03/10 14:36:38;;;;;;;9.82;5.90;;;13.90;99.90;;;;;;11880871;29;20067;-85
2022/03/10 14:42:40;;;;;;;10.60;6.35;;;14.00;99.90;;;;;;11873078;29;20062;-85
2022/03/10 14:48:42;;;;;;;11.77;6.80;;;13.90;99.90;;;;;;11873600;29;20059;-84
2022/03/10 14:54:44;;;;;;;8.70;5.35;;;13.90;99.90;;;;;;11878333;29;20046;-85
2022/03/10 15:00:46;;;;;;;9.63;5.40;;;13.80;99.90;;;;;;11872842;29;20051;-85
2022/03/10 15:06:48;;;;;;;9.20;5.28;;;13.80;99.90;;;;;;11881857;29;20455;-84
2022/03/10 15:13:10;;;;;;;10.65;5.20;;;13.70;99.90;;;;;;11873863;29;20047;-84
2022/03/10 15:19:12;;;;;;;10.98;4.90;;;13.80;99.90;;;;;;11879687;29;20051;-84
2022/03/10 15:25:14;;;;;;;11.88;5.43;;;13.70;99.90;;;;;;11873908;29;20480;-85
2022/03/10 15:31:16;;;;;;;7.15;4.70;;;13.80;99.90;;;;;;11873362;29;20050;-84
2022/03/10 15:37:18;;;;;;;6.63;4.35;;;13.70;99.90;;;;;;11869614;29;20073;-84
2022/03/10 15:43:21;;;;;;;9.23;4.97;;;13.60;99.90;;;;;;11840114;29;20979;-84
2022/03/10 15:49:23;;;;;;;12.75;5.00;;;13.50;99.90;;;;;;11855971;29;20059;-84
2022/03/10 15:55:25;;;;;;;8.23;4.45;;;13.50;99.90;;;;;;11861693;29;20063;-84
2022/03/10 16:01:27;;;;;;;8.20;3.55;;;13.40;99.90;;;;;;11846651;29;20058;-84
2022/03/10 16:07:31;;;;;;;;;;;13.20;99.90;;;;;;11845709;29;20059;-84
2022/03/10 16:13:33;;;;;;;5.38;2.85;;;13.00;99.90;;;;;;11855357;29;19948;-84
2022/03/10 16:19:35;;;;;;;4.72;2.50;;;12.90;99.90;;;;;;11868859;29;20487;-84
2022/03/10 16:25:37;;;;;;;3.00;1.85;;;12.70;99.90;;;;;;11887567;29;20055;-84
2022/03/10 16:31:39;;;;;;;4.22;1.88;;;12.60;99.90;;;;;;11867172;29;20051;-84
2022/03/10 16:37:41;;;;;;;3.78;1.65;;;12.40;98.70;;;;;;11858754;29;20051;-84
2022/03/10 16:43:43;;;;;;;4.15;1.90;;;12.30;99.30;;;;;;11891806;29;20123;-85
2022/03/10 16:49:44;;;;;;;5.07;2.17;;;12.10;99.60;;;;;;11883017;29;20497;-84
2022/03/10 16:55:48;;;;;;;4.20;2.30;;;11.90;99.00;;;;;;11872096;29;20054;-83
2022/03/10 17:01:50;;;;;;;4.87;2.77;;;11.80;99.30;;;;;;11883197;29;20043;-83
2022/03/10 17:07:51;;;;;;;4.40;2.80;;;11.60;99.80;;;;;;11879206;29;20059;-83
2022/03/10 17:13:53;;;;;;;9.18;3.25;;;11.40;99.40;;;;;;11880576;29;20173;-84
2022/03/10 17:19:55;;;;;;;4.88;2.90;;;11.10;99.90;;;;;;11872334;29;20536;-84
2022/03/10 17:25:58;;;;;;;8.98;3.38;;;10.90;99.90;;;;;;11855846;29;20104;-84
2022/03/10 17:32:01;;;;;;;5.28;3.25;;;10.60;99.90;;;;;;11874948;29;20088;-83
2022/03/10 17:38:03;;;;;;;7.32;3.42;;;10.40;99.90;;;;;;11880710;29;20067;-84
2022/03/10 17:44:06;;;;;;;6.82;4.00;;;10.20;99.90;;;;;;11877144;29;20116;-83
2022/03/10 17:50:11;;;;;;;11.63;4.53;;;10.10;99.90;;;;;;11875718;29;20134;-83
2022/03/10 17:56:13;;;;;;;12.18;5.70;;;10.00;99.90;;;;;;11877784;29;21019;-83
2022/03/10 18:02:15;;;;;;;10.07;5.80;;;9.90;99.90;;;;;;11875186;29;20107;-84
2022/03/10 18:08:16;;;;;;;11.27;5.50;;;9.70;99.90;;;;;;11869633;29;20055;-83
2022/03/10 18:14:18;;;;;;;9.23;6.15;;;9.50;99.90;;;;;;11854847;29;20078;-83
2022/03/10 18:20:20;;;;;;;11.00;6.38;;;9.20;99.90;;;;;;11851142;29;20059;-82
2022/03/10 18:26:22;;;;;;;13.75;7.07;;;9.20;99.90;;;;;;11853366;29;20058;-83
2022/03/10 18:32:24;;;;;;;20.60;12.60;;;9.10;99.90;;;;;;11877202;29;20050;-83
2022/03/10 18:38:28;;;;;;;14.90;9.63;;;9.30;99.90;;;;;;11880361;29;20108;-83
2022/03/10 18:44:31;;;;;;;11.83;8.30;;;9.30;99.90;;;;;;11872174;29;20062;-83
2022/03/10 18:50:33;;;;;;;14.30;7.72;;;9.40;99.90;;;;;;11871671;29;20296;-83
2022/03/10 18:56:35;;;;;;;14.55;8.07;;;9.20;99.90;;;;;;11879333;29;20108;-83
2022/03/10 19:02:37;;;;;;;13.70;7.45;;;9.00;99.90;;;;;;11876696;29;20107;-83
2022/03/10 19:08:39;;;;;;;16.02;7.53;;;9.10;99.90;;;;;;11880323;29;20149;-82
2022/03/10 19:14:41;;;;;;;10.35;6.70;;;9.00;99.90;;;;;;11867101;29;20132;-83
2022/03/10 19:20:42;;;;;;;13.10;6.75;;;9.00;99.90;;;;;;11866275;29;20465;-83
2022/03/10 19:26:45;;;;;;;8.30;5.28;;;9.00;99.90;;;;;;11872943;29;20059;-83
2022/03/10 19:32:46;;;;;;;8.30;4.85;;;9.00;99.90;;;;;;11867273;29;20055;-82
2022/03/10 19:38:48;;;;;;;11.80;6.68;;;9.00;99.90;;;;;;11867956;29;20715;-83
2022/03/10 19:44:51;;;;;;;8.35;4.80;;;8.90;99.90;;;;;;11876415;29;20134;-83
2022/03/10 19:50:53;;;;;;;10.15;4.25;;;8.80;99.90;;;;;;11890950;29;20057;-83
2022/03/10 19:56:56;;;;;;;10.25;3.95;;;8.80;99.90;;;;;;11874387;29;20068;-82
2022/03/10 20:02:58;;;;;;;9.55;4.30;;;8.80;99.90;;;;;;11877237;29;20075;-83
2022/03/10 20:09:00;;;;;;;7.10;3.80;;;8.60;99.90;;;;;;11881040;29;20090;-84
2022/03/10 20:15:03;;;;;;;7.30;4.22;;;8.40;99.90;;;;;;11881606;29;20058;-83
2022/03/10 20:21:05;;;;;;;6.18;3.65;;;8.40;99.90;;;;;;11883376;29;20138;-84
2022/03/10 20:27:06;;;;;;;6.82;3.88;;;8.40;99.90;;;;;;11886416;29;20097;-83
2022/03/10 20:33:10;;;;;;;8.68;4.35;;;8.20;99.90;;;;;;11885696;29;20047;-83
2022/03/10 20:39:18;;;;;;;8.27;4.78;;;8.00;99.90;;;;;;11881120;29;20473;-83
2022/03/10 20:45:20;;;;;;;8.38;4.45;;;7.90;99.90;;;;;;11885503;29;20062;-83
2022/03/10 20:51:22;;;;;;;8.43;4.78;;;7.70;99.90;;;;;;11886774;29;20067;-83
2022/03/10 20:57:23;;;;;;;9.25;5.38;;;7.80;99.90;;;;;;11876973;29;20512;-83
2022/03/10 21:03:27;;;;;;;9.18;5.65;;;7.70;99.90;;;;;;11877430;29;20128;-83
2022/03/10 21:09:29;;;;;;;11.10;5.82;;;7.90;99.90;;;;;;11879172;29;20054;-83
2022/03/10 21:15:32;;;;;;;10.82;5.93;;;7.80;99.90;;;;;;11877328;29;20055;-82
2022/03/10 21:21:34;;;;;;;12.20;6.22;;;7.70;99.90;;;;;;11874769;29;20062;-83
2022/03/10 21:27:36;;;;;;;12.85;6.65;;;7.70;99.90;;;;;;11883303;29;20086;-82
2022/03/10 21:33:38;;;;;;;15.98;7.18;;;7.60;99.90;;;;;;11876765;29;20055;-82
2022/03/10 21:39:41;;;;;;;16.55;7.32;;;7.50;99.90;;;;;;11874807;29;20068;-82
2022/03/10 21:45:43;;;;;;;14.30;7.57;;;7.40;99.90;;;;;;11888158;29;20800;-83
2022/03/10 21:51:46;;;;;;;12.15;7.45;;;7.40;99.90;;;;;;11877878;29;20111;-83
2022/03/10 21:57:48;;;;;;;14.07;7.63;;;7.30;99.90;;;;;;11875123;29;20070;-83
2022/03/10 22:03:50;;;;;;;12.57;8.52;;;7.20;99.90;;;;;;11872301;29;20089;-82
2022/03/10 22:09:52;;;;;;;14.45;8.27;;;7.00;99.90;;;;;;11893246;29;20058;-82
2022/03/10 22:15:54;;;;;;;15.77;9.75;;;7.00;99.90;;;;;;11873594;29;20054;-83
2022/03/10 22:21:56;;;;;;;18.15;8.85;;;6.80;99.90;;;;;;11871377;29;20420;-83
2022/03/10 22:27:58;;;;;;;17.52;8.70;;;6.70;99.90;;;;;;11870616;29;20681;-83
2022/03/10 22:34:02;;;;;;;14.75;8.52;;;6.60;99.90;;;;;;11883261;29;20062;-82
2022/03/10 22:40:06;;;;;;;15.95;8.15;;;6.60;99.90;;;;;;11869297;29;20668;-83
2022/03/10 22:46:09;;;;;;;15.90;9.43;;;6.50;99.90;;;;;;11872417;29;20493;-81
2022/03/10 22:58:33;;;;;;;15.20;9.55;;;6.30;99.90;;;;;;11871468;29;20062;-82
2022/03/10 23:11:00;;;;;;;15.80;9.15;;;6.10;99.90;;;;;;11871471;29;20063;-82
2022/03/10 23:17:06;;;;;;;18.48;10.35;;;6.00;99.90;;;;;;11870110;29;20115;-81
2022/03/10 23:23:08;;;;;;;16.05;9.95;;;5.80;99.90;;;;;;11869190;29;20170;-82
2022/03/10 23:29:10;;;;;;;19.48;10.27;;;5.70;99.90;;;;;;11872381;29;21135;-82
2022/03/10 23:35:14;;;;;;;18.20;9.93;;;5.60;99.90;;;;;;11866364;29;20131;-82
2022/03/10 23:41:16;;;;;;;19.65;10.60;;;5.40;99.90;;;;;;11870859;29;20051;-82
2022/03/10 23:47:18;;;;;;;17.58;10.88;;;5.30;99.90;;;;;;11870078;29;20112;-82
2022/03/10 23:53:20;;;;;;;17.52;10.57;;;5.20;99.90;;;;;;11871861;29;20059;-81
2022/03/10 23:59:21;;;;;;;19.75;10.52;;;5.20;99.90;;;;;;11873112;29;20462;-82
